createdAt,value
2023-03-04T00:02:17.130Z,32.69
2023-03-04T00:04:44.893Z,32.05
2023-03-04T00:07:16.660Z,32.71
2023-03-04T00:09:44.439Z,32.58
2023-03-04T00:12:12.251Z,32.32
2023-03-04T00:14:40.077Z,33.01
2023-03-04T00:17:07.967Z,32.28
2023-03-04T00:19:35.932Z,32.30
2023-03-04T00:22:04.196Z,32.38
2023-03-04T00:24:32.175Z,33.04
2023-03-04T00:27:00.247Z,32.50
2023-03-04T00:29:29.281Z,32.26
2023-03-04T00:31:57.179Z,32.83
2023-03-04T00:34:25.098Z,32.81
2023-03-04T00:36:52.914Z,32.74
2023-03-04T00:39:20.625Z,32.93
2023-03-04T00:41:48.413Z,32.96
2023-03-04T00:44:16.413Z,32.65
2023-03-04T00:46:44.167Z,32.22
2023-03-04T00:49:12.150Z,33.11
2023-03-04T00:51:39.936Z,33.04
2023-03-04T00:54:07.736Z,33.00
2023-03-04T00:56:35.561Z,32.55
2023-03-04T00:59:03.372Z,32.41
2023-03-04T01:01:31.341Z,32.35
2023-03-04T01:03:59.131Z,32.55
2023-03-04T01:06:26.962Z,32.66
2023-03-04T01:08:54.817Z,32.47
2023-03-04T01:11:22.584Z,32.81
2023-03-04T01:13:50.406Z,32.33
2023-03-04T01:16:18.169Z,32.80
2023-03-04T01:18:47.584Z,32.21
2023-03-04T01:21:15.369Z,32.95
2023-03-04T01:23:43.283Z,33.00
2023-03-04T01:26:11.056Z,33.05
2023-03-04T01:28:38.823Z,33.15
2023-03-04T01:31:06.581Z,33.05
2023-03-04T01:33:34.365Z,33.16
2023-03-04T01:36:02.082Z,32.47
2023-03-04T01:38:29.836Z,33.12
2023-03-04T01:40:57.695Z,32.39
2023-03-04T01:43:25.607Z,33.04
2023-03-04T01:45:53.448Z,32.47
2023-03-04T01:48:21.310Z,32.24
2023-03-04T01:50:49.063Z,32.58
2023-03-04T01:53:17.221Z,32.67
2023-03-04T01:55:44.962Z,32.92
2023-03-04T01:58:12.841Z,32.47
2023-03-04T02:00:40.648Z,32.72
2023-03-04T02:03:08.644Z,32.80
2023-03-04T02:05:36.410Z,32.59
2023-03-04T02:08:04.238Z,32.94
2023-03-04T02:10:33.616Z,32.52
2023-03-04T02:13:01.453Z,32.61
2023-03-04T02:15:29.447Z,32.73
2023-03-04T02:17:57.239Z,32.54
2023-03-04T02:20:25.009Z,32.87
2023-03-04T02:22:52.788Z,32.50
2023-03-04T02:25:32.404Z,33.15
2023-03-04T02:28:00.205Z,32.69
2023-03-04T02:30:27.943Z,32.50
2023-03-04T02:32:55.775Z,32.89
2023-03-04T02:35:23.572Z,32.43
2023-03-04T02:37:51.576Z,32.77
2023-03-04T02:40:19.325Z,32.88
2023-03-04T02:42:47.312Z,33.17
2023-03-04T02:45:15.082Z,32.47
2023-03-04T02:47:42.900Z,32.55
2023-03-04T02:50:10.711Z,32.46
2023-03-04T02:52:38.444Z,33.19
2023-03-04T02:55:06.317Z,32.62
2023-03-04T02:57:34.060Z,32.61
2023-03-04T03:00:01.929Z,32.67
2023-03-04T03:02:29.771Z,33.01
2023-03-04T03:04:57.685Z,32.46
2023-03-04T03:07:25.600Z,32.73
2023-03-04T03:09:53.380Z,32.48
2023-03-04T03:12:21.240Z,32.29
2023-03-04T03:14:49.029Z,33.10
2023-03-04T03:17:16.736Z,32.86
2023-03-04T03:19:44.723Z,32.74
2023-03-04T03:22:12.506Z,32.99
2023-03-04T03:24:40.255Z,32.87
2023-03-04T03:27:08.165Z,32.27
2023-03-04T03:29:36.001Z,32.95
2023-03-04T03:32:03.930Z,33.08
2023-03-04T03:34:31.708Z,32.59
2023-03-04T03:36:59.475Z,32.58
2023-03-04T03:39:27.225Z,32.31
2023-03-04T03:41:54.973Z,32.28
2023-03-04T03:44:22.796Z,32.36
2023-03-04T03:46:50.748Z,32.77
2023-03-04T03:49:18.507Z,32.39
2023-03-04T03:51:46.375Z,32.71
2023-03-04T03:54:14.166Z,32.90
2023-03-04T03:56:42.015Z,32.98
2023-03-04T03:59:09.833Z,32.50
2023-03-04T04:01:37.881Z,33.25
2023-03-04T04:04:05.972Z,32.60
2023-03-04T04:06:33.753Z,32.85
2023-03-04T04:09:01.516Z,32.50
2023-03-04T04:11:29.271Z,32.86
2023-03-04T04:13:57.078Z,32.44
2023-03-04T04:16:24.865Z,32.80
2023-03-04T04:18:52.682Z,32.58
2023-03-04T04:21:21.066Z,33.00
2023-03-04T04:23:48.863Z,32.79
2023-03-04T04:26:16.797Z,32.44
2023-03-04T04:28:44.587Z,32.28
2023-03-04T04:31:12.429Z,32.90
2023-03-04T04:35:10.238Z,33.19
2023-03-04T04:37:38.188Z,32.90
2023-03-04T04:40:06.387Z,33.19
2023-03-04T04:42:34.206Z,32.79
2023-03-04T04:45:02.452Z,32.88
2023-03-04T04:47:30.218Z,33.07
2023-03-04T04:49:58.121Z,33.04
2023-03-04T04:53:18.715Z,33.05
2023-03-04T04:55:46.534Z,33.02
2023-03-04T04:58:14.264Z,32.80
2023-03-04T05:00:42.106Z,32.79
2023-03-04T05:03:09.978Z,33.07
2023-03-04T05:05:37.746Z,32.82
2023-03-04T05:08:05.442Z,33.10
2023-03-04T05:10:33.165Z,32.79
2023-03-04T05:13:00.953Z,32.66
2023-03-04T05:15:32.013Z,32.87
2023-03-04T05:17:59.793Z,32.72
2023-03-04T05:22:34.924Z,32.59
2023-03-04T05:26:35.341Z,32.50
2023-03-04T05:29:03.240Z,33.05
2023-03-04T05:31:31.379Z,32.92
2023-03-04T05:34:00.564Z,32.64
2023-03-04T05:36:35.875Z,32.13
2023-03-04T05:39:03.579Z,32.36
2023-03-04T05:41:31.351Z,32.01
2023-03-04T05:43:59.194Z,31.30
2023-03-04T05:46:27.050Z,31.74
2023-03-04T05:48:54.842Z,30.62
2023-03-04T05:53:51.539Z,31.10
2023-03-04T05:56:19.349Z,30.71
2023-03-04T05:58:47.578Z,31.24
2023-03-04T06:01:15.591Z,31.07
2023-03-04T06:05:05.886Z,31.74
2023-03-04T06:07:33.656Z,31.11
2023-03-04T06:10:01.651Z,31.41
2023-03-04T06:12:29.869Z,31.65
2023-03-04T06:14:57.697Z,31.53
2023-03-04T06:17:25.461Z,31.10
2023-03-04T06:19:53.206Z,31.01
2023-03-04T06:22:20.971Z,29.68
2023-03-04T06:24:48.808Z,29.28
2023-03-04T06:27:16.891Z,29.15
2023-03-04T06:29:44.633Z,28.43
2023-03-04T06:32:12.442Z,28.69
2023-03-04T06:34:40.195Z,28.58
2023-03-04T06:37:08.015Z,27.89
2023-03-04T06:39:35.809Z,28.10
2023-03-04T06:42:03.779Z,27.86
2023-03-04T06:44:31.641Z,26.86
2023-03-04T06:46:59.950Z,27.55
2023-03-04T06:49:28.196Z,28.10
2023-03-04T06:51:56.054Z,27.62
2023-03-04T06:54:23.790Z,27.69
2023-03-04T06:56:51.606Z,28.38
2023-03-04T06:59:19.500Z,28.80
2023-03-04T07:01:47.441Z,27.95
2023-03-04T07:04:15.598Z,28.50
2023-03-04T07:06:43.661Z,28.39
2023-03-04T07:09:11.486Z,28.74
2023-03-04T07:11:39.305Z,29.03
2023-03-04T07:14:07.117Z,28.93
2023-03-04T07:20:51.207Z,29.33
2023-03-04T07:23:19.334Z,29.93
2023-03-04T07:25:47.091Z,30.43
2023-03-04T07:28:15.070Z,30.32
2023-03-04T07:30:42.899Z,30.18
2023-03-04T07:33:10.700Z,30.16
2023-03-04T07:35:38.680Z,30.26
2023-03-04T07:38:06.560Z,30.57
2023-03-04T07:40:34.297Z,30.56
2023-03-04T07:43:02.140Z,30.94
2023-03-04T07:47:21.057Z,30.26
2023-03-04T07:49:49.935Z,30.46
2023-03-04T07:52:17.792Z,30.29
2023-03-04T07:54:45.486Z,30.11
2023-03-04T07:57:13.212Z,30.49
2023-03-04T07:59:40.970Z,30.72
2023-03-04T08:02:09.848Z,30.87
2023-03-04T08:04:37.700Z,31.17
2023-03-04T08:07:05.407Z,31.11
2023-03-04T08:09:33.144Z,30.90
2023-03-04T08:12:00.849Z,31.22
2023-03-04T08:14:28.702Z,30.73
2023-03-04T08:16:56.424Z,31.17
2023-03-04T08:19:26.096Z,30.70
2023-03-04T08:21:53.903Z,30.27
2023-03-04T08:24:21.621Z,29.51
2023-03-04T08:26:49.799Z,28.96
2023-03-04T08:29:17.716Z,29.02
2023-03-04T08:31:48.682Z,28.52
2023-03-04T08:35:22.793Z,27.80
2023-03-04T08:37:50.801Z,27.87
2023-03-04T08:40:18.793Z,27.75
2023-03-04T08:42:46.544Z,27.96
2023-03-04T08:45:14.516Z,28.07
2023-03-04T08:47:42.487Z,27.94
2023-03-04T08:50:10.387Z,28.03
2023-03-04T08:52:38.163Z,28.78
2023-03-04T08:55:38.668Z,28.55
2023-03-04T08:58:06.417Z,28.76
2023-03-04T09:00:34.185Z,28.88
2023-03-04T09:03:02.052Z,29.28
2023-03-04T09:05:30.181Z,29.12
2023-03-04T09:07:58.035Z,29.27
2023-03-04T09:10:25.738Z,29.81
2023-03-04T09:12:53.708Z,29.40
2023-03-04T09:15:21.422Z,29.35
2023-03-04T09:17:49.163Z,29.79
2023-03-04T09:20:17.115Z,30.09
2023-03-04T09:22:44.862Z,30.06
2023-03-04T09:25:13.264Z,29.59
2023-03-04T09:27:41.030Z,30.20
2023-03-04T09:30:08.812Z,30.31
2023-03-04T09:32:36.841Z,30.28
2023-03-04T09:35:04.657Z,31.15
2023-03-04T09:37:32.504Z,30.55
2023-03-04T09:40:00.239Z,30.54
2023-03-04T09:42:29.425Z,30.65
2023-03-04T09:44:57.329Z,30.76
2023-03-04T09:47:25.131Z,30.70
2023-03-04T09:49:53.037Z,30.68
2023-03-04T09:52:20.880Z,29.96
2023-03-04T09:56:09.053Z,31.05
2023-03-04T09:58:36.777Z,31.13
2023-03-04T10:01:05.442Z,31.75
2023-03-04T10:03:33.336Z,31.63
2023-03-04T10:06:01.212Z,31.34
2023-03-04T10:08:29.254Z,31.17
2023-03-04T10:10:57.167Z,31.55
2023-03-04T10:13:25.074Z,31.33
2023-03-04T10:15:53.784Z,31.75
2023-03-04T10:18:23.077Z,31.81
2023-03-04T10:20:58.275Z,31.73
2023-03-04T10:23:26.067Z,32.06
2023-03-04T10:25:54.887Z,31.83
2023-03-04T10:29:43.215Z,31.52
2023-03-04T10:32:10.997Z,31.98
2023-03-04T10:37:12.935Z,31.81
2023-03-04T10:39:40.772Z,31.79
2023-03-04T10:42:08.760Z,31.95
2023-03-04T10:44:38.901Z,31.39
2023-03-04T10:47:06.649Z,31.78
2023-03-04T10:49:34.509Z,31.93
2023-03-04T10:52:02.599Z,31.79
2023-03-04T10:54:30.308Z,31.74
2023-03-04T10:56:58.103Z,31.52
2023-03-04T10:59:25.832Z,31.96
2023-03-04T11:01:53.630Z,31.40
2023-03-04T11:04:22.309Z,32.02
2023-03-04T11:06:50.190Z,31.66
2023-03-04T11:09:17.969Z,31.59
2023-03-04T11:11:46.128Z,32.03
2023-03-04T11:14:14.034Z,31.99
2023-03-04T11:16:41.912Z,31.41
2023-03-04T11:19:09.802Z,31.86
2023-03-04T11:21:40.004Z,31.70
2023-03-04T11:24:13.338Z,31.35
2023-03-04T11:26:50.024Z,31.80
2023-03-04T11:29:17.783Z,31.81
2023-03-04T11:31:45.549Z,31.83
2023-03-04T11:34:13.770Z,31.41
2023-03-04T11:36:41.517Z,31.64
2023-03-04T11:39:09.414Z,32.10
2023-03-04T11:41:37.175Z,32.00
2023-03-04T11:44:04.960Z,31.44
2023-03-04T11:46:33.186Z,32.17
2023-03-04T11:49:02.084Z,31.60
2023-03-04T11:51:29.883Z,31.39
2023-03-04T11:53:57.619Z,31.33
2023-03-04T11:56:25.414Z,31.98
2023-03-04T11:58:53.276Z,31.52
2023-03-04T12:01:21.104Z,32.09
2023-03-04T12:03:49.177Z,31.97
2023-03-04T12:06:17.224Z,31.45
2023-03-04T12:08:45.083Z,31.77
2023-03-04T12:11:12.854Z,31.53
2023-03-04T12:13:40.599Z,31.97
2023-03-04T12:16:08.326Z,31.91
2023-03-04T12:18:36.032Z,31.59
2023-03-04T12:21:03.751Z,31.94
2023-03-04T12:23:31.639Z,32.14
2023-03-04T12:25:59.357Z,31.55
2023-03-04T12:28:27.721Z,32.19
2023-03-04T12:30:55.630Z,32.08
2023-03-04T12:33:23.424Z,31.71
2023-03-04T12:35:51.242Z,31.41
2023-03-04T12:38:19.365Z,31.38
2023-03-04T12:40:47.101Z,31.31
2023-03-04T12:43:15.909Z,31.34
2023-03-04T12:45:43.735Z,30.94
2023-03-04T12:48:11.606Z,30.74
2023-03-04T12:50:39.277Z,30.14
2023-03-04T12:53:06.992Z,30.00
2023-03-04T12:55:34.946Z,29.50
2023-03-04T12:58:02.737Z,29.26
2023-03-04T13:00:30.773Z,28.78
2023-03-04T13:02:58.633Z,28.13
2023-03-04T13:05:26.479Z,28.68
2023-03-04T13:07:55.016Z,28.23
2023-03-04T13:10:25.616Z,28.24
2023-03-04T13:12:53.532Z,27.91
2023-03-04T13:15:21.623Z,27.80
2023-03-04T13:17:50.313Z,27.88
2023-03-04T13:20:18.053Z,27.94
2023-03-04T13:22:45.858Z,27.85
2023-03-04T13:25:14.131Z,28.05
2023-03-04T13:27:41.862Z,27.87
2023-03-04T13:30:09.626Z,27.84
2023-03-04T13:32:37.626Z,28.36
2023-03-04T13:35:05.458Z,28.17
2023-03-04T13:37:33.166Z,28.51
2023-03-04T13:40:00.956Z,28.53
2023-03-04T13:42:28.705Z,28.81
2023-03-04T13:44:56.751Z,28.90
2023-03-04T13:47:24.656Z,28.82
2023-03-04T13:49:52.724Z,28.86
2023-03-04T13:52:20.598Z,29.29
2023-03-04T13:54:48.503Z,29.19
2023-03-04T13:57:18.438Z,29.32
2023-03-04T13:59:46.466Z,29.37
2023-03-04T14:02:15.879Z,29.46
2023-03-04T14:04:43.701Z,29.22
2023-03-04T14:07:11.485Z,29.30
2023-03-04T14:09:39.276Z,29.96
2023-03-04T14:12:07.001Z,29.68
2023-03-04T14:14:37.514Z,29.80
2023-03-04T14:17:05.348Z,30.16
2023-03-04T14:19:33.484Z,30.02
2023-03-04T14:22:01.331Z,30.06
2023-03-04T14:24:30.851Z,30.35
2023-03-04T14:26:58.631Z,30.27
2023-03-04T14:29:26.483Z,30.23
2023-03-04T14:31:54.381Z,30.28
2023-03-04T14:34:22.200Z,29.95
2023-03-04T14:36:50.111Z,29.81
2023-03-04T14:39:17.985Z,29.85
2023-03-04T14:41:45.725Z,29.46
2023-03-04T14:44:13.677Z,28.85
2023-03-04T14:46:41.464Z,28.71
2023-03-04T14:49:09.306Z,28.77
2023-03-04T14:51:37.051Z,28.69
2023-03-04T14:54:04.966Z,28.42
2023-03-04T14:56:32.718Z,28.65
2023-03-04T14:59:00.450Z,28.24
2023-03-04T15:01:28.253Z,28.74
2023-03-04T15:03:56.287Z,28.95
2023-03-04T15:06:24.213Z,29.03
2023-03-04T15:08:53.210Z,28.96
2023-03-04T15:11:21.856Z,29.19
2023-03-04T15:13:49.848Z,28.99
2023-03-04T15:16:17.800Z,29.42
2023-03-04T15:18:45.663Z,29.65
2023-03-04T15:21:13.460Z,29.60
2023-03-04T15:23:41.246Z,29.87
2023-03-04T15:26:08.984Z,29.91
2023-03-04T15:28:36.726Z,29.83
2023-03-04T15:31:04.615Z,29.97
2023-03-04T15:33:32.618Z,30.04
2023-03-04T15:36:00.487Z,30.08
2023-03-04T15:38:28.351Z,30.26
2023-03-04T15:40:56.547Z,30.41
2023-03-04T15:43:24.320Z,30.37
2023-03-04T15:45:52.103Z,30.76
2023-03-04T15:48:20.084Z,30.51
2023-03-04T15:50:47.835Z,30.50
2023-03-04T15:53:15.812Z,30.91
2023-03-04T15:55:43.583Z,30.41
2023-03-04T15:58:11.475Z,30.66
2023-03-04T16:00:39.222Z,30.54
2023-03-04T16:03:06.992Z,30.47
2023-03-04T16:05:34.975Z,30.56
2023-03-04T16:08:02.720Z,30.96
2023-03-04T16:10:30.872Z,30.84
2023-03-04T16:12:58.687Z,30.49
2023-03-04T16:15:26.519Z,30.73
2023-03-04T16:17:54.324Z,30.65
2023-03-04T16:20:22.393Z,31.26
2023-03-04T16:22:50.176Z,31.38
2023-03-04T16:25:18.014Z,30.53
2023-03-04T16:27:45.814Z,30.28
2023-03-04T16:30:13.613Z,30.49
2023-03-04T16:32:41.600Z,30.68
2023-03-04T16:35:09.372Z,31.01
2023-03-04T16:37:37.189Z,30.84
2023-03-04T16:40:05.068Z,30.76
2023-03-04T16:42:32.845Z,30.51
2023-03-04T16:45:01.057Z,30.78
2023-03-04T16:47:28.977Z,30.54
2023-03-04T16:49:57.695Z,29.63
2023-03-04T16:52:25.576Z,29.00
2023-03-04T16:54:53.379Z,28.77
2023-03-04T16:57:21.188Z,28.20
2023-03-04T16:59:48.989Z,28.12
2023-03-04T17:02:16.716Z,28.21
2023-03-04T17:04:44.690Z,27.71
2023-03-04T17:07:12.503Z,27.56
2023-03-04T17:09:40.295Z,26.98
2023-03-04T17:12:08.019Z,27.52
2023-03-04T17:14:42.700Z,27.64
2023-03-04T17:17:11.739Z,28.05
2023-03-04T17:19:42.081Z,28.32
2023-03-04T17:22:09.813Z,28.59
2023-03-04T17:24:40.007Z,29.13
2023-03-04T17:27:10.172Z,29.33
2023-03-04T17:29:45.788Z,29.70
2023-03-04T17:32:17.300Z,29.38
2023-03-04T17:34:49.185Z,29.69
2023-03-04T17:37:26.634Z,30.02
2023-03-04T17:40:00.177Z,30.18
2023-03-04T18:20:26.318Z,31.09
2023-03-04T18:22:54.137Z,31.36
2023-03-04T18:25:21.995Z,30.93
2023-03-04T18:27:49.787Z,31.38
2023-03-04T18:30:17.811Z,31.51
2023-03-04T18:32:51.817Z,31.66
2023-03-04T18:35:20.262Z,31.62
2023-03-04T18:37:48.101Z,31.32
2023-03-04T18:40:15.854Z,31.73
2023-03-04T18:42:44.287Z,31.97
2023-03-04T18:45:12.070Z,32.23
2023-03-04T18:47:39.865Z,31.73
2023-03-04T18:50:07.638Z,31.67
2023-03-04T18:52:36.000Z,30.86
2023-03-04T18:55:03.734Z,29.93
2023-03-04T18:57:31.692Z,29.62
2023-03-04T18:59:59.997Z,29.10
2023-03-04T19:02:27.969Z,28.55
2023-03-04T19:04:55.699Z,28.00
2023-03-04T19:07:23.852Z,28.38
2023-03-04T19:09:51.648Z,27.80
2023-03-04T19:12:19.388Z,27.79
2023-03-04T19:14:47.262Z,27.67
2023-03-04T19:17:15.306Z,27.96
2023-03-04T19:19:43.108Z,27.75
2023-03-04T19:22:10.874Z,28.21
2023-03-04T19:24:38.666Z,28.31
2023-03-04T19:27:06.509Z,28.43
2023-03-04T19:29:34.464Z,28.81
2023-03-04T19:32:02.343Z,28.81
2023-03-04T19:34:30.152Z,29.14
2023-03-04T19:36:57.888Z,29.43
2023-03-04T19:39:25.735Z,29.59
2023-03-04T19:41:53.490Z,30.09
2023-03-04T19:44:21.315Z,29.78
2023-03-04T19:46:49.112Z,30.14
2023-03-04T19:49:16.930Z,30.22
2023-03-04T19:51:44.756Z,30.38
2023-03-04T19:54:12.515Z,30.27
2023-03-04T19:56:40.270Z,30.85
2023-03-04T19:59:08.047Z,30.88
2023-03-04T20:01:35.785Z,30.83
2023-03-04T20:04:03.639Z,30.78
2023-03-04T20:06:31.388Z,30.59
2023-03-04T20:08:59.206Z,31.07
2023-03-04T20:11:26.997Z,30.59
2023-03-04T20:13:55.112Z,30.40
2023-03-04T20:16:22.868Z,30.46
2023-03-04T20:18:50.784Z,30.54
2023-03-04T20:21:18.977Z,30.88
2023-03-04T20:23:46.772Z,30.50
2023-03-04T20:26:14.643Z,30.92
2023-03-04T20:28:42.428Z,31.05
2023-03-04T20:31:10.432Z,31.76
2023-03-04T20:33:38.195Z,31.40
2023-03-04T20:36:05.961Z,31.69
2023-03-04T20:38:33.754Z,31.64
2023-03-04T20:41:02.024Z,31.04
2023-03-04T20:43:31.229Z,31.38
2023-03-04T20:45:59.039Z,31.66
2023-03-04T20:48:27.122Z,31.55
2023-03-04T20:50:54.882Z,31.52
2023-03-04T20:53:22.645Z,32.04
2023-03-04T20:55:50.437Z,31.07
2023-03-04T20:58:18.227Z,32.09
2023-03-04T21:00:48.489Z,32.30
2023-03-04T21:03:16.421Z,31.57
2023-03-04T21:05:44.178Z,32.34
2023-03-04T21:08:13.463Z,32.32
2023-03-04T21:10:41.208Z,31.95
2023-03-04T21:13:11.287Z,31.77
2023-03-04T21:15:39.103Z,31.97
2023-03-04T21:18:06.914Z,32.24
2023-03-04T21:20:34.752Z,31.57
2023-03-04T21:23:02.466Z,31.65
2023-03-04T21:25:30.372Z,32.28
2023-03-04T21:27:58.177Z,32.08
2023-03-04T21:30:25.967Z,31.85
2023-03-04T21:32:54.141Z,31.87
2023-03-04T21:35:22.275Z,32.03
2023-03-04T21:37:51.427Z,32.03
2023-03-04T21:40:19.280Z,31.88
2023-03-04T21:42:47.134Z,32.23
2023-03-04T21:45:15.059Z,32.06
2023-03-04T21:47:42.812Z,31.46
2023-03-04T21:50:10.752Z,31.90
2023-03-04T21:52:38.519Z,31.68
2023-03-04T21:55:06.438Z,32.43
2023-03-04T21:57:34.355Z,31.97
2023-03-04T22:00:02.476Z,32.20
2023-03-04T22:02:31.113Z,32.35
2023-03-04T22:04:59.015Z,31.82
2023-03-04T22:07:26.798Z,32.09
2023-03-04T22:09:55.638Z,32.24
2023-03-04T22:12:23.484Z,32.17
2023-03-04T22:14:51.308Z,32.17
2023-03-04T22:17:19.099Z,31.86
2023-03-04T22:19:46.946Z,32.22
2023-03-04T22:22:17.981Z,32.07
2023-03-04T22:24:45.843Z,32.23
2023-03-04T22:27:13.617Z,32.52
2023-03-04T22:29:41.578Z,32.04
2023-03-04T22:32:09.355Z,32.18
2023-03-04T22:34:37.363Z,31.75
2023-03-04T22:37:05.081Z,32.32
2023-03-04T22:39:32.820Z,32.28
2023-03-04T22:42:00.715Z,32.21
2023-03-04T22:44:28.490Z,32.15
2023-03-04T22:46:56.222Z,32.38
2023-03-04T22:49:24.104Z,32.12
2023-03-04T22:51:51.795Z,32.62
2023-03-04T22:54:19.795Z,31.98
2023-03-04T22:56:47.556Z,32.21
2023-03-04T22:59:15.503Z,32.08
2023-03-04T23:01:43.298Z,32.27
2023-03-04T23:04:11.298Z,31.90
2023-03-04T23:06:39.065Z,31.61
2023-03-04T23:09:06.938Z,31.59
2023-03-04T23:11:35.398Z,32.24
2023-03-04T23:14:06.470Z,32.60
2023-03-04T23:16:37.194Z,32.04
2023-03-04T23:19:05.056Z,32.01
2023-03-04T23:21:34.007Z,32.48
2023-03-04T23:24:02.387Z,31.90
2023-03-04T23:26:30.570Z,31.53
2023-03-04T23:29:01.320Z,31.81
2023-03-04T23:31:29.092Z,31.74
2023-03-04T23:33:57.577Z,31.95
2023-03-04T23:36:25.447Z,32.27
2023-03-04T23:38:53.261Z,32.39
2023-03-04T23:41:21.292Z,32.18
2023-03-04T23:43:49.053Z,32.64
2023-03-04T23:46:16.812Z,31.76
2023-03-04T23:48:46.344Z,32.29
2023-03-04T23:51:14.251Z,32.51
2023-03-04T23:53:41.952Z,32.16
2023-03-04T23:56:09.692Z,32.38
2023-03-04T23:58:37.689Z,32.20
